sensor_id;sensor_type;location;lat;lon;timestamp;P1;durP1;ratioP1;P2;durP2;ratioP2
11052;SDS011;55230;42.602;23.470;2023-02-27T00:01:00;15.70;;;6.67;;
11052;SDS011;55230;42.602;23.470;2023-02-27T00:03:27;18.03;;;7.40;;
11052;SDS011;55230;42.602;23.470;2023-02-27T00:05:54;18.47;;;7.20;;
11052;SDS011;55230;42.602;23.470;2023-02-27T00:08:21;17.63;;;6.60;;
11052;SDS011;55230;42.602;23.470;2023-02-27T00:10:48;19.17;;;5.87;;
11052;SDS011;55230;42.602;23.470;2023-02-27T00:13:15;29.07;;;10.03;;
11052;SDS011;55230;42.602;23.470;2023-02-27T00:15:45;27.90;;;9.03;;
11052;SDS011;55230;42.602;23.470;2023-02-27T00:18:11;25.13;;;7.50;;
11052;SDS011;55230;42.602;23.470;2023-02-27T00:20:38;20.87;;;6.40;;
11052;SDS011;55230;42.602;23.470;2023-02-27T00:23:05;21.50;;;7.10;;
11052;SDS011;55230;42.602;23.470;2023-02-27T00:25:33;19.27;;;6.27;;
11052;SDS011;55230;42.602;23.470;2023-02-27T00:28:01;16.43;;;5.30;;
11052;SDS011;55230;42.602;23.470;2023-02-27T00:30:28;19.37;;;5.57;;
11052;SDS011;55230;42.602;23.470;2023-02-27T00:32:56;17.10;;;5.40;;
11052;SDS011;55230;42.602;23.470;2023-02-27T00:35:23;20.03;;;5.47;;
11052;SDS011;55230;42.602;23.470;2023-02-27T00:37:49;24.77;;;6.47;;
11052;SDS011;55230;42.602;23.470;2023-02-27T00:40:16;20.80;;;6.67;;
11052;SDS011;55230;42.602;23.470;2023-02-27T00:42:43;18.40;;;5.83;;
11052;SDS011;55230;42.602;23.470;2023-02-27T00:45:12;21.27;;;5.33;;
11052;SDS011;55230;42.602;23.470;2023-02-27T00:47:39;20.00;;;5.27;;
11052;SDS011;55230;42.602;23.470;2023-02-27T00:50:08;23.23;;;6.57;;
11052;SDS011;55230;42.602;23.470;2023-02-27T00:52:36;21.27;;;7.07;;
11052;SDS011;55230;42.602;23.470;2023-02-27T00:55:02;21.90;;;7.23;;
11052;SDS011;55230;42.602;23.470;2023-02-27T00:57:29;20.67;;;6.80;;
11052;SDS011;55230;42.602;23.470;2023-02-27T00:59:56;17.57;;;5.30;;
11052;SDS011;55230;42.602;23.470;2023-02-27T01:02:23;18.77;;;4.90;;
11052;SDS011;55230;42.602;23.470;2023-02-27T01:04:50;16.80;;;5.37;;
11052;SDS011;55230;42.602;23.470;2023-02-27T01:07:18;23.20;;;5.53;;
11052;SDS011;55230;42.602;23.470;2023-02-27T01:09:45;19.77;;;5.03;;
11052;SDS011;55230;42.602;23.470;2023-02-27T01:12:11;17.83;;;4.67;;
11052;SDS011;55230;42.602;23.470;2023-02-27T01:14:38;18.27;;;5.50;;
11052;SDS011;55230;42.602;23.470;2023-02-27T01:17:05;19.73;;;5.20;;
11052;SDS011;55230;42.602;23.470;2023-02-27T01:19:32;23.93;;;5.50;;
11052;SDS011;55230;42.602;23.470;2023-02-27T01:21:58;17.27;;;4.97;;
11052;SDS011;55230;42.602;23.470;2023-02-27T01:24:26;14.83;;;5.13;;
11052;SDS011;55230;42.602;23.470;2023-02-27T01:26:53;17.73;;;5.20;;
11052;SDS011;55230;42.602;23.470;2023-02-27T01:29:20;19.73;;;6.00;;
11052;SDS011;55230;42.602;23.470;2023-02-27T01:31:47;18.70;;;5.20;;
11052;SDS011;55230;42.602;23.470;2023-02-27T01:34:14;20.77;;;6.00;;
11052;SDS011;55230;42.602;23.470;2023-02-27T01:36:41;20.60;;;5.63;;
11052;SDS011;55230;42.602;23.470;2023-02-27T01:39:08;17.00;;;5.10;;
11052;SDS011;55230;42.602;23.470;2023-02-27T01:41:36;19.27;;;5.50;;
11052;SDS011;55230;42.602;23.470;2023-02-27T01:44:03;22.30;;;6.30;;
11052;SDS011;55230;42.602;23.470;2023-02-27T01:46:32;15.67;;;5.90;;
11052;SDS011;55230;42.602;23.470;2023-02-27T01:49:00;22.87;;;6.00;;
11052;SDS011;55230;42.602;23.470;2023-02-27T01:51:30;19.20;;;5.33;;
11052;SDS011;55230;42.602;23.470;2023-02-27T01:53:59;22.87;;;6.20;;
11052;SDS011;55230;42.602;23.470;2023-02-27T01:56:28;21.87;;;6.83;;
11052;SDS011;55230;42.602;23.470;2023-02-27T01:59:00;20.57;;;5.80;;
11052;SDS011;55230;42.602;23.470;2023-02-27T02:01:29;41.23;;;12.60;;
11052;SDS011;55230;42.602;23.470;2023-02-27T02:03:58;19.17;;;6.90;;
11052;SDS011;55230;42.602;23.470;2023-02-27T02:06:30;15.07;;;6.17;;
11052;SDS011;55230;42.602;23.470;2023-02-27T02:09:03;16.90;;;5.67;;
11052;SDS011;55230;42.602;23.470;2023-02-27T02:11:31;21.43;;;5.47;;
11052;SDS011;55230;42.602;23.470;2023-02-27T02:14:00;19.33;;;5.93;;
11052;SDS011;55230;42.602;23.470;2023-02-27T02:19:21;19.40;;;6.70;;
11052;SDS011;55230;42.602;23.470;2023-02-27T02:22:18;20.63;;;6.87;;
11052;SDS011;55230;42.602;23.470;2023-02-27T02:25:10;19.53;;;7.27;;
11052;SDS011;55230;42.602;23.470;2023-02-27T02:28:01;16.13;;;6.17;;
11052;SDS011;55230;42.602;23.470;2023-02-27T02:30:46;14.03;;;3.23;;
11052;SDS011;55230;42.602;23.470;2023-02-27T02:39:40;2.80;;;0.97;;
11052;SDS011;55230;42.602;23.470;2023-02-27T02:42:22;2.40;;;0.90;;
11052;SDS011;55230;42.602;23.470;2023-02-27T02:44:55;1.70;;;0.63;;
11052;SDS011;55230;42.602;23.470;2023-02-27T02:47:30;1.20;;;0.60;;
11052;SDS011;55230;42.602;23.470;2023-02-27T02:50:03;2.67;;;0.63;;
11052;SDS011;55230;42.602;23.470;2023-02-27T02:52:40;0.90;;;0.40;;
11052;SDS011;55230;42.602;23.470;2023-02-27T02:55:19;2.37;;;0.83;;
11052;SDS011;55230;42.602;23.470;2023-02-27T02:57:51;1.40;;;1.03;;
11052;SDS011;55230;42.602;23.470;2023-02-27T03:00:21;4.33;;;0.90;;
11052;SDS011;55230;42.602;23.470;2023-02-27T03:02:54;1.37;;;1.00;;
11052;SDS011;55230;42.602;23.470;2023-02-27T03:05:28;2.33;;;0.57;;
11052;SDS011;55230;42.602;23.470;2023-02-27T03:07:59;2.00;;;1.07;;
11052;SDS011;55230;42.602;23.470;2023-02-27T03:10:31;7.17;;;2.67;;
11052;SDS011;55230;42.602;23.470;2023-02-27T03:13:02;6.50;;;3.17;;
11052;SDS011;55230;42.602;23.470;2023-02-27T03:15:34;1.97;;;1.50;;
11052;SDS011;55230;42.602;23.470;2023-02-27T03:18:06;1.80;;;1.00;;
11052;SDS011;55230;42.602;23.470;2023-02-27T03:20:41;1.07;;;0.90;;
11052;SDS011;55230;42.602;23.470;2023-02-27T03:23:12;1.70;;;0.80;;
11052;SDS011;55230;42.602;23.470;2023-02-27T03:25:44;1.90;;;1.40;;
11052;SDS011;55230;42.602;23.470;2023-02-27T03:28:13;1.80;;;1.30;;
11052;SDS011;55230;42.602;23.470;2023-02-27T03:30:44;3.57;;;1.50;;
11052;SDS011;55230;42.602;23.470;2023-02-27T03:33:18;1.20;;;1.10;;
11052;SDS011;55230;42.602;23.470;2023-02-27T03:35:49;1.33;;;0.77;;
11052;SDS011;55230;42.602;23.470;2023-02-27T03:38:21;1.93;;;1.03;;
11052;SDS011;55230;42.602;23.470;2023-02-27T03:40:58;2.03;;;1.20;;
11052;SDS011;55230;42.602;23.470;2023-02-27T03:43:34;1.90;;;1.13;;
11052;SDS011;55230;42.602;23.470;2023-02-27T03:46:09;2.00;;;0.93;;
11052;SDS011;55230;42.602;23.470;2023-02-27T03:48:37;3.73;;;2.23;;
11052;SDS011;55230;42.602;23.470;2023-02-27T03:51:08;2.47;;;1.93;;
11052;SDS011;55230;42.602;23.470;2023-02-27T03:53:36;3.33;;;1.83;;
11052;SDS011;55230;42.602;23.470;2023-02-27T03:56:09;5.20;;;1.90;;
11052;SDS011;55230;42.602;23.470;2023-02-27T03:58:39;5.10;;;3.07;;
11052;SDS011;55230;42.602;23.470;2023-02-27T04:01:06;6.30;;;3.50;;
11052;SDS011;55230;42.602;23.470;2023-02-27T04:03:35;4.27;;;3.00;;
11052;SDS011;55230;42.602;23.470;2023-02-27T04:06:09;5.47;;;3.27;;
11052;SDS011;55230;42.602;23.470;2023-02-27T04:08:50;6.33;;;3.70;;
11052;SDS011;55230;42.602;23.470;2023-02-27T04:11:35;5.40;;;3.17;;
11052;SDS011;55230;42.602;23.470;2023-02-27T04:14:28;4.83;;;3.20;;
11052;SDS011;55230;42.602;23.470;2023-02-27T04:17:12;4.43;;;3.57;;
11052;SDS011;55230;42.602;23.470;2023-02-27T04:19:50;4.63;;;3.10;;
11052;SDS011;55230;42.602;23.470;2023-02-27T04:22:40;8.20;;;3.53;;
11052;SDS011;55230;42.602;23.470;2023-02-27T04:28:10;8.07;;;4.80;;
11052;SDS011;55230;42.602;23.470;2023-02-27T04:30:44;4.97;;;3.10;;
11052;SDS011;55230;42.602;23.470;2023-02-27T04:33:19;7.33;;;3.30;;
11052;SDS011;55230;42.602;23.470;2023-02-27T04:35:55;5.33;;;3.37;;
11052;SDS011;55230;42.602;23.470;2023-02-27T04:38:25;6.60;;;3.63;;
11052;SDS011;55230;42.602;23.470;2023-02-27T04:40:56;4.50;;;3.00;;
11052;SDS011;55230;42.602;23.470;2023-02-27T04:43:28;3.90;;;2.90;;
11052;SDS011;55230;42.602;23.470;2023-02-27T04:45:56;4.53;;;3.73;;
11052;SDS011;55230;42.602;23.470;2023-02-27T04:48:27;4.67;;;2.73;;
11052;SDS011;55230;42.602;23.470;2023-02-27T04:51:00;6.53;;;3.10;;
11052;SDS011;55230;42.602;23.470;2023-02-27T04:53:33;3.60;;;2.80;;
11052;SDS011;55230;42.602;23.470;2023-02-27T04:56:07;3.97;;;2.53;;
11052;SDS011;55230;42.602;23.470;2023-02-27T04:58:40;2.67;;;2.20;;
11052;SDS011;55230;42.602;23.470;2023-02-27T05:01:10;3.80;;;2.43;;
11052;SDS011;55230;42.602;23.470;2023-02-27T05:03:44;4.13;;;2.50;;
11052;SDS011;55230;42.602;23.470;2023-02-27T05:06:13;3.70;;;2.07;;
11052;SDS011;55230;42.602;23.470;2023-02-27T05:08:43;3.17;;;2.40;;
11052;SDS011;55230;42.602;23.470;2023-02-27T05:11:16;3.10;;;2.27;;
11052;SDS011;55230;42.602;23.470;2023-02-27T05:13:52;4.27;;;2.57;;
11052;SDS011;55230;42.602;23.470;2023-02-27T05:16:23;3.83;;;2.27;;
11052;SDS011;55230;42.602;23.470;2023-02-27T05:18:57;3.97;;;2.43;;
11052;SDS011;55230;42.602;23.470;2023-02-27T05:21:26;4.33;;;2.63;;
11052;SDS011;55230;42.602;23.470;2023-02-27T05:24:00;2.87;;;2.43;;
11052;SDS011;55230;42.602;23.470;2023-02-27T05:26:39;3.40;;;2.70;;
11052;SDS011;55230;42.602;23.470;2023-02-27T05:29:18;2.73;;;2.40;;
11052;SDS011;55230;42.602;23.470;2023-02-27T05:31:50;4.23;;;2.70;;
11052;SDS011;55230;42.602;23.470;2023-02-27T05:34:20;3.50;;;2.70;;
11052;SDS011;55230;42.602;23.470;2023-02-27T05:36:52;5.13;;;3.70;;
11052;SDS011;55230;42.602;23.470;2023-02-27T05:39:22;2.70;;;2.27;;
11052;SDS011;55230;42.602;23.470;2023-02-27T05:41:55;3.63;;;2.83;;
11052;SDS011;55230;42.602;23.470;2023-02-27T05:44:28;2.70;;;2.17;;
11052;SDS011;55230;42.602;23.470;2023-02-27T05:46:58;3.57;;;2.60;;
11052;SDS011;55230;42.602;23.470;2023-02-27T05:49:29;5.00;;;3.13;;
11052;SDS011;55230;42.602;23.470;2023-02-27T05:51:59;3.60;;;2.90;;
11052;SDS011;55230;42.602;23.470;2023-02-27T05:54:28;4.73;;;2.87;;
11052;SDS011;55230;42.602;23.470;2023-02-27T05:57:01;2.60;;;2.20;;
11052;SDS011;55230;42.602;23.470;2023-02-27T05:59:34;3.33;;;2.53;;
11052;SDS011;55230;42.602;23.470;2023-02-27T06:02:07;5.60;;;4.00;;
11052;SDS011;55230;42.602;23.470;2023-02-27T06:04:35;8.20;;;5.77;;
11052;SDS011;55230;42.602;23.470;2023-02-27T06:07:02;8.00;;;5.10;;
11052;SDS011;55230;42.602;23.470;2023-02-27T06:09:30;6.33;;;3.77;;
11052;SDS011;55230;42.602;23.470;2023-02-27T06:12:00;20.10;;;10.93;;
11052;SDS011;55230;42.602;23.470;2023-02-27T06:14:27;3.20;;;2.70;;
11052;SDS011;55230;42.602;23.470;2023-02-27T06:16:55;3.50;;;2.20;;
11052;SDS011;55230;42.602;23.470;2023-02-27T06:19:22;3.40;;;2.83;;
11052;SDS011;55230;42.602;23.470;2023-02-27T06:21:49;5.87;;;2.80;;
11052;SDS011;55230;42.602;23.470;2023-02-27T06:24:16;3.37;;;2.53;;
11052;SDS011;55230;42.602;23.470;2023-02-27T06:26:42;2.40;;;2.20;;
11052;SDS011;55230;42.602;23.470;2023-02-27T06:29:10;4.50;;;3.03;;
11052;SDS011;55230;42.602;23.470;2023-02-27T06:31:36;4.93;;;3.80;;
11052;SDS011;55230;42.602;23.470;2023-02-27T06:34:05;5.13;;;3.10;;
11052;SDS011;55230;42.602;23.470;2023-02-27T06:36:31;4.57;;;3.60;;
11052;SDS011;55230;42.602;23.470;2023-02-27T06:38:58;5.23;;;4.27;;
11052;SDS011;55230;42.602;23.470;2023-02-27T06:41:25;6.53;;;4.37;;
11052;SDS011;55230;42.602;23.470;2023-02-27T06:43:52;5.33;;;4.10;;
11052;SDS011;55230;42.602;23.470;2023-02-27T06:46:19;5.77;;;4.30;;
11052;SDS011;55230;42.602;23.470;2023-02-27T06:48:46;6.00;;;4.70;;
11052;SDS011;55230;42.602;23.470;2023-02-27T06:51:14;6.77;;;5.50;;
11052;SDS011;55230;42.602;23.470;2023-02-27T06:53:41;7.60;;;6.30;;
11052;SDS011;55230;42.602;23.470;2023-02-27T06:56:08;10.10;;;6.30;;
11052;SDS011;55230;42.602;23.470;2023-02-27T06:58:34;10.07;;;6.57;;
11052;SDS011;55230;42.602;23.470;2023-02-27T07:01:01;12.23;;;9.17;;
11052;SDS011;55230;42.602;23.470;2023-02-27T07:03:28;6.43;;;4.40;;
11052;SDS011;55230;42.602;23.470;2023-02-27T07:05:55;6.50;;;5.37;;
11052;SDS011;55230;42.602;23.470;2023-02-27T07:08:24;6.97;;;5.03;;
11052;SDS011;55230;42.602;23.470;2023-02-27T07:10:50;6.03;;;4.80;;
11052;SDS011;55230;42.602;23.470;2023-02-27T07:13:17;19.60;;;11.20;;
11052;SDS011;55230;42.602;23.470;2023-02-27T07:15:44;9.23;;;6.00;;
11052;SDS011;55230;42.602;23.470;2023-02-27T07:18:11;7.37;;;5.90;;
11052;SDS011;55230;42.602;23.470;2023-02-27T07:20:38;8.00;;;6.47;;
11052;SDS011;55230;42.602;23.470;2023-02-27T07:23:05;11.50;;;8.33;;
11052;SDS011;55230;42.602;23.470;2023-02-27T07:25:33;8.73;;;7.03;;
11052;SDS011;55230;42.602;23.470;2023-02-27T07:27:59;14.47;;;11.07;;
11052;SDS011;55230;42.602;23.470;2023-02-27T07:30:26;10.60;;;8.23;;
11052;SDS011;55230;42.602;23.470;2023-02-27T07:32:54;5.07;;;3.43;;
11052;SDS011;55230;42.602;23.470;2023-02-27T07:35:21;4.90;;;4.10;;
11052;SDS011;55230;42.602;23.470;2023-02-27T07:37:48;5.17;;;4.40;;
11052;SDS011;55230;42.602;23.470;2023-02-27T07:40:14;5.53;;;4.67;;
11052;SDS011;55230;42.602;23.470;2023-02-27T07:42:43;4.53;;;4.13;;
11052;SDS011;55230;42.602;23.470;2023-02-27T07:45:12;6.67;;;5.77;;
11052;SDS011;55230;42.602;23.470;2023-02-27T07:47:38;6.30;;;5.30;;
11052;SDS011;55230;42.602;23.470;2023-02-27T07:50:05;5.77;;;4.60;;
11052;SDS011;55230;42.602;23.470;2023-02-27T07:52:32;5.20;;;4.23;;
11052;SDS011;55230;42.602;23.470;2023-02-27T07:54:59;5.37;;;4.50;;
11052;SDS011;55230;42.602;23.470;2023-02-27T07:57:26;6.40;;;4.67;;
11052;SDS011;55230;42.602;23.470;2023-02-27T07:59:54;6.33;;;4.97;;
11052;SDS011;55230;42.602;23.470;2023-02-27T08:02:21;6.07;;;5.37;;
11052;SDS011;55230;42.602;23.470;2023-02-27T08:04:47;7.27;;;5.40;;
11052;SDS011;55230;42.602;23.470;2023-02-27T08:07:15;7.20;;;5.50;;
11052;SDS011;55230;42.602;23.470;2023-02-27T08:09:42;7.63;;;6.17;;
11052;SDS011;55230;42.602;23.470;2023-02-27T08:12:09;9.90;;;7.30;;
11052;SDS011;55230;42.602;23.470;2023-02-27T08:14:36;7.93;;;6.10;;
11052;SDS011;55230;42.602;23.470;2023-02-27T08:17:05;7.20;;;6.10;;
11052;SDS011;55230;42.602;23.470;2023-02-27T08:19:31;8.83;;;5.63;;
11052;SDS011;55230;42.602;23.470;2023-02-27T08:21:59;6.87;;;4.50;;
11052;SDS011;55230;42.602;23.470;2023-02-27T08:24:25;5.47;;;4.83;;
11052;SDS011;55230;42.602;23.470;2023-02-27T08:26:52;5.53;;;4.97;;
11052;SDS011;55230;42.602;23.470;2023-02-27T08:29:19;6.30;;;5.43;;
11052;SDS011;55230;42.602;23.470;2023-02-27T08:31:46;6.73;;;4.93;;
11052;SDS011;55230;42.602;23.470;2023-02-27T08:34:14;5.23;;;4.37;;
11052;SDS011;55230;42.602;23.470;2023-02-27T08:36:41;8.20;;;6.00;;
11052;SDS011;55230;42.602;23.470;2023-02-27T08:39:08;8.37;;;5.60;;
11052;SDS011;55230;42.602;23.470;2023-02-27T08:41:34;6.40;;;5.30;;
11052;SDS011;55230;42.602;23.470;2023-02-27T08:44:01;7.93;;;6.03;;
11052;SDS011;55230;42.602;23.470;2023-02-27T08:46:29;6.70;;;4.67;;
11052;SDS011;55230;42.602;23.470;2023-02-27T08:48:55;7.90;;;5.63;;
11052;SDS011;55230;42.602;23.470;2023-02-27T08:51:23;7.27;;;5.57;;
11052;SDS011;55230;42.602;23.470;2023-02-27T08:53:50;9.27;;;5.17;;
11052;SDS011;55230;42.602;23.470;2023-02-27T08:56:19;9.27;;;5.03;;
11052;SDS011;55230;42.602;23.470;2023-02-27T08:58:45;7.43;;;5.20;;
11052;SDS011;55230;42.602;23.470;2023-02-27T09:01:12;13.13;;;8.93;;
11052;SDS011;55230;42.602;23.470;2023-02-27T09:03:39;9.50;;;5.50;;
11052;SDS011;55230;42.602;23.470;2023-02-27T09:06:06;8.87;;;6.03;;
11052;SDS011;55230;42.602;23.470;2023-02-27T09:08:34;8.53;;;5.37;;
11052;SDS011;55230;42.602;23.470;2023-02-27T09:11:01;8.00;;;5.60;;
11052;SDS011;55230;42.602;23.470;2023-02-27T09:13:28;6.30;;;5.03;;
11052;SDS011;55230;42.602;23.470;2023-02-27T09:15:55;5.93;;;5.30;;
11052;SDS011;55230;42.602;23.470;2023-02-27T09:18:21;6.07;;;4.70;;
11052;SDS011;55230;42.602;23.470;2023-02-27T09:20:48;6.67;;;4.70;;
11052;SDS011;55230;42.602;23.470;2023-02-27T09:23:16;8.57;;;5.30;;
11052;SDS011;55230;42.602;23.470;2023-02-27T09:25:44;4.93;;;3.67;;
11052;SDS011;55230;42.602;23.470;2023-02-27T09:28:12;5.27;;;4.03;;
11052;SDS011;55230;42.602;23.470;2023-02-27T09:30:40;4.53;;;3.70;;
11052;SDS011;55230;42.602;23.470;2023-02-27T09:33:07;6.60;;;3.57;;
11052;SDS011;55230;42.602;23.470;2023-02-27T09:35:34;5.77;;;3.47;;
11052;SDS011;55230;42.602;23.470;2023-02-27T09:38:01;5.63;;;4.10;;
11052;SDS011;55230;42.602;23.470;2023-02-27T09:40:28;4.90;;;3.73;;
11052;SDS011;55230;42.602;23.470;2023-02-27T09:42:58;6.33;;;4.27;;
11052;SDS011;55230;42.602;23.470;2023-02-27T09:45:28;4.67;;;4.17;;
11052;SDS011;55230;42.602;23.470;2023-02-27T09:48:02;6.20;;;4.50;;
11052;SDS011;55230;42.602;23.470;2023-02-27T09:50:35;4.70;;;4.27;;
11052;SDS011;55230;42.602;23.470;2023-02-27T09:53:05;8.23;;;5.50;;
11052;SDS011;55230;42.602;23.470;2023-02-27T09:55:37;7.60;;;5.47;;
11052;SDS011;55230;42.602;23.470;2023-02-27T09:58:13;8.00;;;5.77;;
11052;SDS011;55230;42.602;23.470;2023-02-27T10:00:55;6.73;;;5.17;;
11052;SDS011;55230;42.602;23.470;2023-02-27T10:03:33;7.17;;;4.50;;
11052;SDS011;55230;42.602;23.470;2023-02-27T10:06:17;7.87;;;5.13;;
11052;SDS011;55230;42.602;23.470;2023-02-27T10:08:52;6.27;;;5.50;;
11052;SDS011;55230;42.602;23.470;2023-02-27T10:11:29;7.30;;;5.30;;
11052;SDS011;55230;42.602;23.470;2023-02-27T10:14:06;10.07;;;7.20;;
11052;SDS011;55230;42.602;23.470;2023-02-27T10:16:42;10.10;;;7.33;;
11052;SDS011;55230;42.602;23.470;2023-02-27T10:19:12;11.73;;;7.33;;
11052;SDS011;55230;42.602;23.470;2023-02-27T10:21:42;9.30;;;7.00;;
11052;SDS011;55230;42.602;23.470;2023-02-27T10:24:14;8.93;;;6.70;;
11052;SDS011;55230;42.602;23.470;2023-02-27T10:26:48;8.73;;;5.93;;
11052;SDS011;55230;42.602;23.470;2023-02-27T10:29:22;10.77;;;7.07;;
11052;SDS011;55230;42.602;23.470;2023-02-27T10:31:54;12.27;;;8.50;;
11052;SDS011;55230;42.602;23.470;2023-02-27T10:34:28;9.13;;;6.47;;
11052;SDS011;55230;42.602;23.470;2023-02-27T10:36:57;17.50;;;10.80;;
11052;SDS011;55230;42.602;23.470;2023-02-27T10:39:27;12.67;;;7.50;;
11052;SDS011;55230;42.602;23.470;2023-02-27T10:41:56;34.43;;;22.37;;
11052;SDS011;55230;42.602;23.470;2023-02-27T10:44:29;7.80;;;6.70;;
11052;SDS011;55230;42.602;23.470;2023-02-27T10:46:57;7.23;;;6.43;;
11052;SDS011;55230;42.602;23.470;2023-02-27T10:49:24;8.70;;;6.83;;
11052;SDS011;55230;42.602;23.470;2023-02-27T10:52:03;7.27;;;5.57;;
11052;SDS011;55230;42.602;23.470;2023-02-27T10:54:32;9.37;;;6.10;;
11052;SDS011;55230;42.602;23.470;2023-02-27T10:57:00;36.53;;;20.60;;
11052;SDS011;55230;42.602;23.470;2023-02-27T10:59:32;20.90;;;11.83;;
11052;SDS011;55230;42.602;23.470;2023-02-27T11:02:02;13.73;;;8.90;;
11052;SDS011;55230;42.602;23.470;2023-02-27T11:04:32;7.90;;;5.63;;
11052;SDS011;55230;42.602;23.470;2023-02-27T11:07:03;8.43;;;5.80;;
11052;SDS011;55230;42.602;23.470;2023-02-27T11:09:33;9.87;;;6.13;;
11052;SDS011;55230;42.602;23.470;2023-02-27T11:12:09;10.23;;;6.20;;
11052;SDS011;55230;42.602;23.470;2023-02-27T11:14:50;14.07;;;9.43;;
11052;SDS011;55230;42.602;23.470;2023-02-27T11:17:22;8.50;;;6.23;;
11052;SDS011;55230;42.602;23.470;2023-02-27T11:19:52;26.43;;;17.30;;
11052;SDS011;55230;42.602;23.470;2023-02-27T11:22:20;9.90;;;6.47;;
11052;SDS011;55230;42.602;23.470;2023-02-27T11:24:48;7.10;;;5.73;;
11052;SDS011;55230;42.602;23.470;2023-02-27T11:27:17;7.13;;;5.67;;
11052;SDS011;55230;42.602;23.470;2023-02-27T11:29:56;7.57;;;5.87;;
11052;SDS011;55230;42.602;23.470;2023-02-27T11:32:25;6.93;;;5.07;;
11052;SDS011;55230;42.602;23.470;2023-02-27T11:34:57;8.97;;;6.73;;
11052;SDS011;55230;42.602;23.470;2023-02-27T11:37:26;9.77;;;6.03;;
11052;SDS011;55230;42.602;23.470;2023-02-27T11:39:58;8.97;;;5.70;;
11052;SDS011;55230;42.602;23.470;2023-02-27T11:42:40;10.77;;;8.10;;
11052;SDS011;55230;42.602;23.470;2023-02-27T11:45:21;8.70;;;6.00;;
11052;SDS011;55230;42.602;23.470;2023-02-27T11:47:55;7.87;;;5.27;;
11052;SDS011;55230;42.602;23.470;2023-02-27T11:53:33;8.30;;;5.07;;
11052;SDS011;55230;42.602;23.470;2023-02-27T11:56:11;8.37;;;6.70;;
11052;SDS011;55230;42.602;23.470;2023-02-27T11:58:45;8.20;;;5.30;;
11052;SDS011;55230;42.602;23.470;2023-02-27T12:01:20;7.23;;;5.73;;
11052;SDS011;55230;42.602;23.470;2023-02-27T12:03:54;9.60;;;6.23;;
11052;SDS011;55230;42.602;23.470;2023-02-27T12:06:28;7.57;;;6.03;;
11052;SDS011;55230;42.602;23.470;2023-02-27T12:09:01;7.87;;;6.10;;
11052;SDS011;55230;42.602;23.470;2023-02-27T12:11:31;9.93;;;6.63;;
11052;SDS011;55230;42.602;23.470;2023-02-27T12:14:03;7.67;;;5.83;;
11052;SDS011;55230;42.602;23.470;2023-02-27T12:16:39;10.77;;;5.90;;
11052;SDS011;55230;42.602;23.470;2023-02-27T12:19:10;7.60;;;6.17;;
11052;SDS011;55230;42.602;23.470;2023-02-27T12:21:44;9.03;;;6.00;;
11052;SDS011;55230;42.602;23.470;2023-02-27T12:24:15;8.73;;;6.33;;
11052;SDS011;55230;42.602;23.470;2023-02-27T12:26:47;15.93;;;8.10;;
11052;SDS011;55230;42.602;23.470;2023-02-27T12:29:23;104.97;;;56.27;;
11052;SDS011;55230;42.602;23.470;2023-02-27T12:31:57;35.50;;;21.97;;
11052;SDS011;55230;42.602;23.470;2023-02-27T12:34:32;45.23;;;27.53;;
11052;SDS011;55230;42.602;23.470;2023-02-27T12:37:08;21.43;;;14.00;;
11052;SDS011;55230;42.602;23.470;2023-02-27T12:39:38;9.67;;;6.07;;
11052;SDS011;55230;42.602;23.470;2023-02-27T12:45:21;8.27;;;5.90;;
11052;SDS011;55230;42.602;23.470;2023-02-27T12:48:15;11.37;;;6.60;;
11052;SDS011;55230;42.602;23.470;2023-02-27T12:50:51;7.87;;;6.33;;
11052;SDS011;55230;42.602;23.470;2023-02-27T12:53:26;8.23;;;6.67;;
11052;SDS011;55230;42.602;23.470;2023-02-27T12:56:01;10.20;;;6.47;;
11052;SDS011;55230;42.602;23.470;2023-02-27T12:58:34;9.27;;;6.10;;
11052;SDS011;55230;42.602;23.470;2023-02-27T13:01:14;8.43;;;6.60;;
11052;SDS011;55230;42.602;23.470;2023-02-27T13:03:53;10.90;;;6.37;;
11052;SDS011;55230;42.602;23.470;2023-02-27T13:06:24;9.33;;;6.53;;
11052;SDS011;55230;42.602;23.470;2023-02-27T13:09:02;6.63;;;5.70;;
11052;SDS011;55230;42.602;23.470;2023-02-27T13:11:40;8.73;;;6.20;;
11052;SDS011;55230;42.602;23.470;2023-02-27T13:14:20;11.57;;;8.43;;
11052;SDS011;55230;42.602;23.470;2023-02-27T13:16:55;10.47;;;7.57;;
11052;SDS011;55230;42.602;23.470;2023-02-27T13:19:28;11.93;;;7.90;;
11052;SDS011;55230;42.602;23.470;2023-02-27T13:22:02;14.60;;;9.60;;
11052;SDS011;55230;42.602;23.470;2023-02-27T13:24:35;7.70;;;5.77;;
11052;SDS011;55230;42.602;23.470;2023-02-27T13:27:06;12.13;;;6.93;;
11052;SDS011;55230;42.602;23.470;2023-02-27T13:29:41;11.43;;;6.60;;
11052;SDS011;55230;42.602;23.470;2023-02-27T13:32:20;9.33;;;6.83;;
11052;SDS011;55230;42.602;23.470;2023-02-27T13:34:54;7.87;;;6.00;;
11052;SDS011;55230;42.602;23.470;2023-02-27T13:40:25;7.63;;;5.60;;
11052;SDS011;55230;42.602;23.470;2023-02-27T13:42:58;9.27;;;5.53;;
11052;SDS011;55230;42.602;23.470;2023-02-27T13:45:46;11.40;;;6.60;;
11052;SDS011;55230;42.602;23.470;2023-02-27T13:57:19;13.83;;;7.80;;
11052;SDS011;55230;42.602;23.470;2023-02-27T14:02:49;14.93;;;6.97;;
11052;SDS011;55230;42.602;23.470;2023-02-27T14:05:25;29.90;;;7.93;;
11052;SDS011;55230;42.602;23.470;2023-02-27T14:07:59;9.07;;;6.47;;
11052;SDS011;55230;42.602;23.470;2023-02-27T14:10:34;15.37;;;7.57;;
11052;SDS011;55230;42.602;23.470;2023-02-27T14:13:02;15.83;;;10.97;;
11052;SDS011;55230;42.602;23.470;2023-02-27T14:15:53;22.77;;;18.27;;
11052;SDS011;55230;42.602;23.470;2023-02-27T14:24:21;12.73;;;10.67;;
11052;SDS011;55230;42.602;23.470;2023-02-27T14:26:52;14.73;;;10.23;;
11052;SDS011;55230;42.602;23.470;2023-02-27T14:29:21;26.83;;;18.37;;
11052;SDS011;55230;42.602;23.470;2023-02-27T14:31:55;29.00;;;20.10;;
11052;SDS011;55230;42.602;23.470;2023-02-27T14:34:22;33.87;;;21.63;;
11052;SDS011;55230;42.602;23.470;2023-02-27T14:36:50;21.10;;;14.80;;
11052;SDS011;55230;42.602;23.470;2023-02-27T14:39:19;18.23;;;12.40;;
11052;SDS011;55230;42.602;23.470;2023-02-27T14:41:50;23.30;;;15.40;;
11052;SDS011;55230;42.602;23.470;2023-02-27T14:44:36;17.57;;;11.70;;
11052;SDS011;55230;42.602;23.470;2023-02-27T14:47:05;17.57;;;12.03;;
11052;SDS011;55230;42.602;23.470;2023-02-27T14:49:39;13.87;;;10.37;;
11052;SDS011;55230;42.602;23.470;2023-02-27T14:52:10;24.57;;;16.83;;
11052;SDS011;55230;42.602;23.470;2023-02-27T14:54:38;26.50;;;19.03;;
11052;SDS011;55230;42.602;23.470;2023-02-27T14:57:13;24.67;;;16.00;;
11052;SDS011;55230;42.602;23.470;2023-02-27T14:59:43;21.47;;;15.50;;
11052;SDS011;55230;42.602;23.470;2023-02-27T15:02:15;15.33;;;10.03;;
11052;SDS011;55230;42.602;23.470;2023-02-27T15:04:46;14.73;;;10.00;;
11052;SDS011;55230;42.602;23.470;2023-02-27T15:07:19;15.77;;;10.37;;
11052;SDS011;55230;42.602;23.470;2023-02-27T15:09:50;13.37;;;9.57;;
11052;SDS011;55230;42.602;23.470;2023-02-27T15:12:21;14.03;;;9.40;;
11052;SDS011;55230;42.602;23.470;2023-02-27T15:17:45;16.90;;;10.97;;
11052;SDS011;55230;42.602;23.470;2023-02-27T15:20:21;29.33;;;19.03;;
11052;SDS011;55230;42.602;23.470;2023-02-27T15:22:51;16.43;;;12.07;;
11052;SDS011;55230;42.602;23.470;2023-02-27T15:25:28;15.00;;;11.00;;
11052;SDS011;55230;42.602;23.470;2023-02-27T15:27:59;19.50;;;10.83;;
11052;SDS011;55230;42.602;23.470;2023-02-27T15:30:27;15.73;;;10.40;;
11052;SDS011;55230;42.602;23.470;2023-02-27T15:32:56;16.83;;;11.37;;